Geneva, IL (60134)

3:08 PM CST on December 20, 2014 (GMT -0600)
Dover Ridge | Change Station
CLOSE
Current Station
Personal Weather Station
Location: Geneva, IL
Elevation: 745 ft
Nearby Weather Stations

Elev 745 ft 41.89 °N, 88.33 °W | Updated 2 seconds ago

Overcast
Overcast
32.3 °F
Feels Like 27 °F
N
6.0
Wind Variable Wind from SSW
Gusts 6.0 mph

Today
High -- | Low -- °F
--% Chance of Precip.
Yesterday
High -- | Low -- °F
Precip. -- in
7:17 AM 4:24 PM
Waning Crescent, 2% visible
Pressure 30.26 in
Visibility 9.0 miles
Clouds Mostly Cloudy 4100 ft
Overcast 6000 ft
Windchill 27 °F
Dew Point 27 °F
Humidity 81%
Rainfall 0.00 in
Snow Depth Not available.
UV 0.0 out of 12
Pollen .10 out of 12
Air Quality Not available.
Flu Activity Not available.
METAR KDPA 202052Z 18005KT 9SM BKN041 OVC060 01/M04 A3023 RMK AO2 SLP245 T00061044 55008

More Conditions Fewer Conditions

Pressure 30.26 in
Visibility 9.0 miles
Clouds Mostly Cloudy 4100 ft
Overcast 6000 ft
Windchill 27 °F
Dew Point 27 °F
Humidity 81%
Rainfall 0.00 in
Snow Depth Not available.
UV 0.0 out of 12
Pollen .10 out of 12
Air Quality Not available.
Flu Activity Not available.
METAR KDPA 202052Z 18005KT 9SM BKN041 OVC060 01/M04 A3023 RMK AO2 SLP245 T00061044 55008

More Conditions Fewer Conditions

10-Day Weather Forecast

Almanac

Astronomy

Dec. 20, 2014 Rise Set
Actual Time
Civil Twilight
Nautical Twilight
Astronomical Twilight
Moon
Length of Visible Light
Length of Day
Tomorrow will be .
, % of the Moon is Illuminated

Today's Extremes

State Highs State Lows

Community

WunderPhotos

Upload Photos

1,779,272 photos uploaded!

WunderBlogs® & News

Nearby

Air Quality

  Air Quality AQ Index Pollutant
Not available.

Snow Depth

Station Depth Elevation

Earthquake Activity

City Distance Mag. Time & Date
Minimum magnitude displayed is 2.5.

Coastal Water Temperatures

Place Temperature

Nearby Weather Stations